Time;durP1;ratioP1;P1;durP2;ratioP2;P2;SDS_P1;SDS_P2;PMS_P1;PMS_P2;Temp;Humidity;BMP_temperature;BMP_pressure;BME280_temperature;BME280_humidity;BME280_pressure;Samples;Min_cycle;Max_cycle;Signal;HPM_P1;HPM_P2
2021/04/25 00:00:16;;;;;;;63.65;39.03;;;9.00;93.50;;;;;;5124134;28;20019;-71
2021/04/25 00:02:42;;;;;;;216.68;111.32;;;9.00;94.40;;;;;;5123573;28;20084;-72
2021/04/25 00:05:10;;;;;;;70.63;39.33;;;9.00;94.20;;;;;;5124763;28;20103;-71
2021/04/25 00:07:36;;;;;;;67.70;39.30;;;8.80;93.40;;;;;;5121117;28;20430;-76
2021/04/25 00:10:04;;;;;;;66.50;38.85;;;8.80;94.00;;;;;;5124751;28;20027;-72
2021/04/25 00:12:32;;;;;;;74.15;42.28;;;8.80;94.10;;;;;;5120794;28;20019;-74
2021/04/25 00:14:58;;;;;;;61.05;36.95;;;8.80;94.90;;;;;;5123348;28;20019;-71
2021/04/25 00:17:25;;;;;;;68.68;40.30;;;8.70;94.40;;;;;;5122103;28;20116;-72
2021/04/25 00:19:51;;;;;;;71.18;40.90;;;8.70;94.40;;;;;;5123846;28;20015;-74
2021/04/25 00:22:17;;;;;;;67.40;41.90;;;8.70;94.40;;;;;;5122067;28;20032;-72
2021/04/25 00:24:43;;;;;;;67.53;40.47;;;8.60;94.40;;;;;;5123215;28;20096;-71
2021/04/25 00:27:10;;;;;;;82.90;47.92;;;8.60;94.20;;;;;;5120706;28;20031;-73
2021/04/25 00:29:37;;;;;;;73.63;45.10;;;8.60;94.50;;;;;;5122837;28;20027;-75
2021/04/25 00:32:03;;;;;;;83.22;49.67;;;8.70;94.80;;;;;;5122551;28;20023;-75
2021/04/25 00:34:29;;;;;;;76.47;45.03;;;8.70;94.40;;;;;;5123334;28;20023;-76
2021/04/25 00:36:55;;;;;;;69.28;42.00;;;8.60;94.10;;;;;;5120088;28;20019;-72
2021/04/25 00:39:21;;;;;;;69.63;42.30;;;8.50;94.50;;;;;;5120432;28;20024;-75
2021/04/25 00:41:47;;;;;;;68.30;41.45;;;8.50;94.40;;;;;;5121643;28;20073;-75
2021/04/25 00:44:12;;;;;;;63.75;36.90;;;8.50;94.30;;;;;;5119766;28;20110;-71
2021/04/25 00:46:40;;;;;;;58.40;35.47;;;8.50;93.60;;;;;;5117981;28;20024;-76
2021/04/25 00:49:06;;;;;;;60.28;36.15;;;8.60;94.20;;;;;;5121894;28;20022;-76
2021/04/25 00:51:33;;;;;;;90.40;52.85;;;8.60;94.40;;;;;;5122446;28;19999;-75
2021/04/25 00:54:01;;;;;;;74.85;42.97;;;8.70;93.90;;;;;;5123843;27;20030;-72
2021/04/25 00:56:27;;;;;;;60.50;36.38;;;8.60;94.10;;;;;;5119996;28;20023;-72
2021/04/25 00:58:56;;;;;;;68.07;39.55;;;8.60;94.10;;;;;;5122918;27;20421;-75
2021/04/25 01:01:26;;;;;;;103.95;53.88;;;8.60;94.00;;;;;;5122795;28;20027;-76
2021/04/25 01:03:53;;;;;;;88.20;48.55;;;8.60;93.90;;;;;;5124424;28;20031;-76
2021/04/25 01:06:19;;;;;;;59.97;38.03;;;8.60;94.30;;;;;;5122557;28;20019;-71
2021/04/25 01:08:45;;;;;;;60.97;36.10;;;8.60;94.30;;;;;;5122720;28;20019;-74
2021/04/25 01:11:11;;;;;;;51.55;32.92;;;8.50;93.80;;;;;;5122217;28;20020;-74
2021/04/25 01:13:39;;;;;;;53.05;33.63;;;8.50;93.60;;;;;;5122011;28;20024;-75
2021/04/25 01:16:05;;;;;;;48.72;31.20;;;8.50;94.00;;;;;;5121577;28;20130;-72
2021/04/25 01:18:31;;;;;;;55.10;33.60;;;8.30;93.90;;;;;;5122433;28;20004;-74
2021/04/25 01:21:02;;;;;;;55.10;33.75;;;8.20;94.10;;;;;;5121722;28;20030;-75
2021/04/25 01:23:28;;;;;;;64.75;39.15;;;8.20;94.00;;;;;;5122219;28;20039;-76
2021/04/25 01:25:54;;;;;;;64.95;40.15;;;8.20;94.30;;;;;;5118440;28;20088;-71
2021/04/25 01:28:20;;;;;;;68.38;41.47;;;8.20;94.50;;;;;;5121233;28;20051;-76
2021/04/25 01:30:47;;;;;;;67.22;41.00;;;8.10;94.80;;;;;;5121133;28;20016;-75
2021/04/25 01:33:13;;;;;;;76.22;40.75;;;8.10;95.10;;;;;;5119968;28;20271;-75
2021/04/25 01:35:39;;;;;;;66.75;38.92;;;8.00;95.30;;;;;;5123398;28;20071;-71
2021/04/25 01:38:04;;;;;;;67.15;38.15;;;8.00;95.90;;;;;;5119287;28;20044;-72
2021/04/25 01:40:31;;;;;;;64.75;38.83;;;8.00;95.80;;;;;;5120499;28;20024;-75
2021/04/25 01:42:59;;;;;;;62.88;36.95;;;8.00;95.80;;;;;;5118686;28;20037;-72
2021/04/25 01:45:26;;;;;;;61.78;36.28;;;7.90;96.20;;;;;;5120725;28;20438;-75
2021/04/25 01:47:56;;;;;;;56.80;33.72;;;7.90;96.40;;;;;;5121456;28;20054;-76
2021/04/25 01:50:24;;;;;;;61.17;33.80;;;7.90;96.70;;;;;;5124299;28;20015;-76
2021/04/25 01:52:50;;;;;;;56.28;32.38;;;7.90;96.80;;;;;;5121269;28;20020;-75
2021/04/25 01:55:18;;;;;;;57.42;33.25;;;7.90;97.40;;;;;;5119507;28;20031;-72
2021/04/25 01:57:44;;;;;;;52.28;32.08;;;7.80;97.30;;;;;;5118351;28;20023;-72
2021/04/25 02:00:17;;;;;;;52.50;31.33;;;7.80;97.40;;;;;;5121672;28;20007;-72
2021/04/25 02:02:45;;;;;;;56.60;33.47;;;7.70;97.60;;;;;;5120163;28;20049;-74
2021/04/25 02:05:12;;;;;;;55.80;33.42;;;7.70;97.90;;;;;;5119471;28;20027;-76
2021/04/25 02:07:38;;;;;;;62.85;35.67;;;7.70;97.90;;;;;;5122791;28;20023;-71
2021/04/25 02:10:06;;;;;;;60.00;36.15;;;7.70;98.20;;;;;;5120952;28;20085;-72
2021/04/25 02:12:32;;;;;;;61.53;35.53;;;7.60;98.20;;;;;;5121824;28;20104;-75
2021/04/25 02:14:58;;;;;;;60.42;35.13;;;7.50;98.60;;;;;;5121116;28;20008;-73
2021/04/25 02:17:24;;;;;;;59.63;35.03;;;7.50;98.20;;;;;;5121551;28;20098;-74
2021/04/25 02:19:50;;;;;;;59.75;34.72;;;7.50;98.40;;;;;;5120710;28;20057;-77
2021/04/25 02:22:16;;;;;;;58.92;34.33;;;7.50;98.30;;;;;;5119488;28;20431;-76
2021/04/25 02:24:42;;;;;;;69.70;37.00;;;7.60;99.00;;;;;;5119936;28;20110;-76
2021/04/25 02:27:08;;;;;;;54.65;33.80;;;7.70;98.40;;;;;;5120182;28;20051;-72
2021/04/25 02:29:34;;;;;;;52.65;32.88;;;7.50;97.90;;;;;;5121993;28;20023;-76
2021/04/25 02:32:00;;;;;;;59.03;34.75;;;7.50;98.30;;;;;;5120319;28;20078;-76
2021/04/25 02:34:26;;;;;;;60.15;33.15;;;7.60;97.70;;;;;;5122376;28;20007;-76
2021/04/25 02:36:52;;;;;;;51.50;32.85;;;7.50;98.00;;;;;;5120837;28;20034;-77
2021/04/25 02:39:18;;;;;;;56.38;33.15;;;7.40;98.40;;;;;;5120336;28;20027;-74
2021/04/25 02:41:45;;;;;;;50.28;31.85;;;7.30;98.60;;;;;;5120611;28;20019;-74
2021/04/25 02:44:11;;;;;;;51.63;32.42;;;7.30;98.50;;;;;;5119701;28;20088;-71
2021/04/25 02:46:37;;;;;;;56.25;32.25;;;7.30;98.40;;;;;;5119902;28;20024;-71
2021/04/25 02:49:03;;;;;;;55.17;33.05;;;7.40;98.10;;;;;;5120810;28;20525;-75
2021/04/25 02:51:29;;;;;;;51.47;32.90;;;7.40;98.10;;;;;;5122103;28;20067;-74
2021/04/25 02:53:55;;;;;;;53.42;32.63;;;7.20;98.00;;;;;;5122400;28;20031;-72
2021/04/25 02:56:21;;;;;;;55.72;31.25;;;7.10;98.30;;;;;;5121690;28;20023;-75
2021/04/25 02:58:47;;;;;;;53.33;31.60;;;7.00;98.70;;;;;;5119450;28;20019;-72
2021/04/25 03:01:13;;;;;;;49.05;29.75;;;7.00;98.50;;;;;;5121145;28;20039;-72
2021/04/25 03:03:38;;;;;;;51.08;30.63;;;7.00;98.80;;;;;;5120457;28;20099;-72
2021/04/25 03:06:04;;;;;;;49.58;30.45;;;7.00;98.90;;;;;;5120514;28;20076;-73
2021/04/25 03:08:30;;;;;;;51.75;30.23;;;6.90;98.80;;;;;;5119460;28;20018;-75
2021/04/25 03:10:56;;;;;;;50.67;31.80;;;6.90;98.90;;;;;;5121533;28;20004;-71
2021/04/25 03:13:23;;;;;;;52.58;32.65;;;6.80;99.30;;;;;;5120886;28;20031;-76
2021/04/25 03:15:49;;;;;;;55.38;31.88;;;6.90;99.70;;;;;;5120492;28;20153;-71
2021/04/25 03:18:15;;;;;;;51.60;31.17;;;6.90;98.90;;;;;;5120450;28;20034;-77
2021/04/25 03:20:41;;;;;;;53.08;32.42;;;6.90;98.60;;;;;;5120928;28;20024;-75
2021/04/25 03:23:06;;;;;;;53.45;32.58;;;6.80;98.60;;;;;;5120933;28;20004;-75
2021/04/25 03:25:33;;;;;;;48.50;30.58;;;6.70;98.40;;;;;;5120756;28;20103;-77
2021/04/25 03:28:00;;;;;;;58.40;32.63;;;6.60;97.60;;;;;;5119859;28;20447;-75
2021/04/25 03:30:26;;;;;;;48.03;26.67;;;6.40;98.50;;;;;;5120063;28;20023;-77
2021/04/25 03:32:52;;;;;;;41.97;24.35;;;6.10;99.10;;;;;;5124200;28;20047;-74
2021/04/25 03:35:19;;;;;;;43.85;24.27;;;5.90;99.70;;;;;;5124273;28;20035;-71
2021/04/25 03:37:46;;;;;;;43.38;25.00;;;5.60;99.90;;;;;;5123889;28;20036;-72
2021/04/25 03:40:16;;;;;;;43.33;25.98;;;5.40;99.90;;;;;;5123138;28;20024;-71
2021/04/25 03:42:42;;;;;;;41.10;24.65;;;5.10;99.90;;;;;;5124883;28;20374;-71
2021/04/25 03:45:13;;;;;;;36.17;24.10;;;4.90;99.90;;;;;;5123845;28;20120;-75
2021/04/25 03:47:48;;;;;;;46.15;26.02;;;4.90;99.90;;;;;;5124623;28;20029;-77
2021/04/25 03:50:16;;;;;;;41.28;25.05;;;4.90;99.90;;;;;;5124708;28;20047;-71
2021/04/25 03:52:44;;;;;;;36.80;23.15;;;4.90;99.90;;;;;;5124651;28;20106;-74
2021/04/25 03:55:11;;;;;;;33.30;21.35;;;5.00;99.90;;;;;;5123792;28;20441;-74
2021/04/25 03:57:37;;;;;;;33.92;20.92;;;4.90;99.90;;;;;;5124036;28;20015;-74
2021/04/25 04:00:06;;;;;;;31.13;19.52;;;4.90;99.90;;;;;;5121595;28;20023;-73
2021/04/25 04:02:31;;;;;;;29.30;20.02;;;4.80;99.90;;;;;;5123139;27;20012;-75
2021/04/25 04:04:58;;;;;;;33.58;19.27;;;4.90;99.90;;;;;;5120818;28;20038;-76
2021/04/25 04:07:23;;;;;;;34.60;20.23;;;4.90;99.90;;;;;;5122514;28;20039;-73
2021/04/25 04:09:49;;;;;;;31.88;19.02;;;4.90;99.90;;;;;;5121450;28;20023;-72
2021/04/25 04:12:15;;;;;;;36.45;19.77;;;5.10;99.90;;;;;;5122627;28;20400;-71
2021/04/25 04:14:42;;;;;;;35.47;21.17;;;5.10;99.90;;;;;;5122699;28;20016;-77
2021/04/25 04:17:08;;;;;;;33.58;19.75;;;;;;;;;;5120894;28;20038;-77
2021/04/25 04:19:34;;;;;;;31.45;20.35;;;5.10;99.90;;;;;;5122794;28;20020;-76
2021/04/25 04:22:00;;;;;;;34.63;20.70;;;5.30;99.90;;;;;;5119396;28;20024;-71
2021/04/25 04:24:26;;;;;;;33.70;20.23;;;5.50;99.90;;;;;;5119794;28;20035;-76
2021/04/25 04:26:52;;;;;;;36.65;21.73;;;;;;;;;;5121024;28;20028;-72
2021/04/25 04:29:18;;;;;;;38.90;26.40;;;6.00;99.90;;;;;;5123563;28;20027;-73
2021/04/25 04:31:44;;;;;;;47.97;31.48;;;6.00;99.90;;;;;;5122391;28;20454;-72
2021/04/25 04:34:10;;;;;;;67.43;43.15;;;6.10;99.90;;;;;;5122389;28;20020;-73
2021/04/25 04:36:36;;;;;;;53.88;34.78;;;6.20;99.90;;;;;;5121264;28;20023;-73
2021/04/25 04:39:03;;;;;;;54.80;32.33;;;6.40;99.80;;;;;;5122177;28;20362;-73
2021/04/25 04:41:29;;;;;;;45.33;27.45;;;6.50;99.20;;;;;;5121687;28;20035;-73
2021/04/25 04:43:55;;;;;;;28.02;18.73;;;6.60;99.40;;;;;;5122283;28;20019;-72
2021/04/25 04:46:21;;;;;;;32.78;20.58;;;6.70;98.80;;;;;;5121230;28;20459;-72
2021/04/25 04:48:47;;;;;;;31.27;20.17;;;6.70;98.70;;;;;;5114204;28;20031;-72
2021/04/25 04:51:13;;;;;;;34.45;21.50;;;6.70;98.70;;;;;;5122499;28;20027;-73
2021/04/25 04:53:39;;;;;;;37.00;20.63;;;6.70;99.10;;;;;;5118398;28;20497;-73
2021/04/25 04:56:05;;;;;;;42.40;23.30;;;6.70;98.70;;;;;;5120715;28;20016;-75
2021/04/25 04:58:31;;;;;;;64.45;32.70;;;6.80;99.10;;;;;;5122137;28;20024;-76
2021/04/25 05:00:57;;;;;;;157.07;62.45;;;7.00;98.90;;;;;;5121479;28;20023;-72
2021/04/25 05:03:24;;;;;;;37.63;22.15;;;7.10;98.50;;;;;;5116018;28;20028;-72
2021/04/25 05:05:50;;;;;;;35.45;22.45;;;7.20;98.60;;;;;;5120911;28;20023;-75
2021/04/25 05:08:16;;;;;;;37.05;22.55;;;7.10;98.90;;;;;;5121069;28;20382;-72
2021/04/25 05:10:42;;;;;;;74.32;36.30;;;7.20;98.60;;;;;;5118956;28;20016;-72
2021/04/25 05:13:09;;;;;;;60.13;30.33;;;7.30;98.60;;;;;;5121957;28;20347;-76
2021/04/25 05:15:37;;;;;;;37.33;24.77;;;7.60;98.10;;;;;;5123736;28;20008;-75
2021/04/25 05:18:03;;;;;;;64.38;33.75;;;7.90;97.90;;;;;;5119467;28;20020;-72
2021/04/25 05:20:29;;;;;;;115.53;50.50;;;7.90;96.80;;;;;;5120379;28;20024;-74
2021/04/25 05:22:59;;;;;;;49.75;28.95;;;7.90;97.40;;;;;;5122196;28;20003;-72
2021/04/25 05:25:26;;;;;;;40.40;25.77;;;8.10;97.20;;;;;;5121347;27;20022;-72
2021/04/25 05:27:52;;;;;;;47.03;27.42;;;8.30;97.60;;;;;;5120324;28;20043;-72
2021/04/25 05:30:18;;;;;;;41.65;27.20;;;8.30;96.60;;;;;;5122110;28;20085;-73
2021/04/25 05:32:44;;;;;;;84.65;43.70;;;8.30;96.50;;;;;;5120427;28;20023;-74
2021/04/25 05:35:11;;;;;;;48.97;30.00;;;8.50;96.10;;;;;;5119917;28;20023;-72
2021/04/25 05:37:38;;;;;;;42.55;27.02;;;8.60;95.90;;;;;;5119297;28;20027;-76
2021/04/25 05:40:06;;;;;;;50.03;30.75;;;8.60;96.00;;;;;;5121059;27;20035;-71
2021/04/25 05:42:32;;;;;;;42.88;26.73;;;8.70;97.10;;;;;;5120994;28;20373;-76
2021/04/25 05:44:58;;;;;;;40.38;26.02;;;8.60;97.00;;;;;;5119051;28;20111;-76
2021/04/25 05:47:24;;;;;;;34.80;24.75;;;;;;;;;;5116969;28;20055;-71
2021/04/25 05:49:50;;;;;;;37.63;24.55;;;8.80;96.10;;;;;;5116061;28;20462;-72
2021/04/25 05:52:16;;;;;;;55.30;30.17;;;8.90;96.20;;;;;;5115759;28;20102;-72
2021/04/25 05:54:42;;;;;;;48.65;27.52;;;9.20;96.40;;;;;;5113843;28;20038;-72
2021/04/25 05:57:08;;;;;;;42.70;24.75;;;9.40;95.00;;;;;;5115144;28;20095;-71
2021/04/25 05:59:38;;;;;;;39.30;23.95;;;9.30;94.80;;;;;;5119239;28;20023;-72
2021/04/25 06:02:05;;;;;;;38.85;24.48;;;9.50;94.30;;;;;;5119251;28;20113;-76
2021/04/25 06:04:31;;;;;;;35.42;23.27;;;9.60;94.30;;;;;;5118266;28;20062;-71
2021/04/25 06:06:57;;;;;;;36.20;23.90;;;9.60;94.10;;;;;;5117814;28;20020;-74
2021/04/25 06:09:23;;;;;;;35.65;23.80;;;9.70;93.50;;;;;;5122338;28;20034;-73
2021/04/25 06:11:49;;;;;;;38.22;26.25;;;9.80;93.30;;;;;;5120367;28;20478;-76
2021/04/25 06:14:16;;;;;;;39.63;25.50;;;9.90;93.40;;;;;;5116826;28;20034;-72
2021/04/25 06:16:42;;;;;;;82.03;39.20;;;10.00;93.10;;;;;;5117685;28;20469;-75
2021/04/25 06:19:08;;;;;;;137.60;60.60;;;10.20;93.10;;;;;;5121142;28;20077;-72
2021/04/25 06:21:34;;;;;;;47.67;28.40;;;10.40;92.90;;;;;;5120048;28;20027;-74
2021/04/25 06:24:00;;;;;;;79.72;37.47;;;10.70;94.10;;;;;;5121113;28;20068;-72
2021/04/25 06:26:26;;;;;;;40.97;24.90;;;10.80;91.60;;;;;;5120232;28;20099;-77
2021/04/25 06:28:53;;;;;;;195.23;76.93;;;11.10;90.90;;;;;;5118453;28;20136;-76
2021/04/25 06:31:19;;;;;;;57.75;30.48;;;11.30;91.70;;;;;;5117107;28;20413;-75
2021/04/25 06:33:46;;;;;;;55.85;30.55;;;11.50;88.40;;;;;;5117328;28;20103;-73
2021/04/25 06:36:13;;;;;;;37.30;22.98;;;11.70;88.70;;;;;;5117729;28;20020;-76
2021/04/25 06:38:39;;;;;;;35.25;22.63;;;11.80;90.40;;;;;;5117500;28;20024;-71
2021/04/25 06:41:05;;;;;;;36.58;22.60;;;12.00;90.30;;;;;;5117843;28;20072;-74
2021/04/25 06:43:33;;;;;;;32.85;21.10;;;12.20;83.70;;;;;;5118752;28;20027;-72
2021/04/25 06:46:00;;;;;;;35.50;21.30;;;12.40;85.10;;;;;;5116096;28;20438;-73
2021/04/25 06:48:26;;;;;;;36.17;22.33;;;12.60;83.30;;;;;;5118216;28;20458;-76
2021/04/25 06:50:51;;;;;;;28.83;19.10;;;12.80;80.10;;;;;;5117597;28;20501;-72
2021/04/25 06:53:17;;;;;;;29.92;18.63;;;12.80;76.70;;;;;;5117121;28;20035;-75
2021/04/25 06:55:43;;;;;;;35.55;22.40;;;12.90;74.90;;;;;;5116510;28;20027;-73
2021/04/25 06:58:09;;;;;;;46.20;27.33;;;13.00;79.50;;;;;;5115655;28;20020;-76
2021/04/25 07:00:35;;;;;;;27.52;18.73;;;;;;;;;;5116878;28;20019;-71
2021/04/25 07:03:02;;;;;;;26.80;17.17;;;13.30;72.40;;;;;;5116758;28;20088;-76
2021/04/25 07:05:28;;;;;;;33.55;19.05;;;13.40;73.30;;;;;;5117383;28;20110;-72
2021/04/25 07:07:56;;;;;;;27.75;16.30;;;13.60;73.30;;;;;;5123394;28;20055;-74
2021/04/25 07:10:23;;;;;;;26.17;16.08;;;13.80;70.90;;;;;;5121603;28;20019;-72
2021/04/25 07:12:49;;;;;;;26.95;17.25;;;14.00;73.70;;;;;;5119964;28;20058;-75
2021/04/25 07:15:15;;;;;;;26.50;17.23;;;14.20;71.10;;;;;;5121059;28;20016;-76
2021/04/25 07:17:44;;;;;;;24.73;16.55;;;14.30;70.10;;;;;;5121106;28;20020;-75
2021/04/25 07:20:10;;;;;;;24.90;16.77;;;14.40;66.70;;;;;;5122681;28;20035;-75
2021/04/25 07:22:38;;;;;;;24.92;16.50;;;14.50;69.40;;;;;;5125232;28;20006;-74
2021/04/25 07:25:05;;;;;;;30.85;19.27;;;14.60;68.00;;;;;;5123778;28;20055;-72
2021/04/25 07:27:32;;;;;;;26.27;15.10;;;;;;;;;;5123696;28;20122;-72
2021/04/25 07:29:58;;;;;;;26.58;16.65;;;14.90;68.30;;;;;;5123033;28;20040;-75
2021/04/25 07:32:24;;;;;;;31.13;19.90;;;;;;;;;;5121419;28;20534;-75
2021/04/25 07:34:50;;;;;;;20.67;12.18;;;15.50;67.30;;;;;;5121271;28;20378;-77
2021/04/25 07:37:16;;;;;;;22.23;14.00;;;15.60;64.10;;;;;;5122564;28;20023;-73
2021/04/25 07:39:42;;;;;;;28.83;18.60;;;15.70;64.00;;;;;;5123221;28;20030;-78
2021/04/25 07:42:11;;;;;;;20.15;12.05;;;16.00;63.00;;;;;;5117648;28;20023;-78
2021/04/25 07:44:41;;;;;;;18.55;11.55;;;16.20;62.20;;;;;;5120547;28;20038;-76
2021/04/25 07:47:07;;;;;;;25.65;14.82;;;16.20;60.80;;;;;;5119721;28;20023;-74
2021/04/25 07:49:34;;;;;;;25.48;15.60;;;;;;;;;;5121497;28;20110;-74
2021/04/25 07:52:00;;;;;;;23.55;14.00;;;16.70;57.60;;;;;;5120047;28;20011;-73
2021/04/25 07:54:27;;;;;;;19.35;11.05;;;16.70;55.30;;;;;;5123507;28;20015;-75
2021/04/25 07:56:54;;;;;;;21.45;11.52;;;16.80;55.90;;;;;;5121896;28;20030;-75
2021/04/25 07:59:20;;;;;;;16.30;10.35;;;17.10;58.30;;;;;;5121818;28;20034;-75
2021/04/25 08:01:47;;;;;;;18.30;10.88;;;17.30;53.60;;;;;;5118563;28;20148;-73
2021/04/25 08:04:13;;;;;;;34.53;20.92;;;17.40;50.20;;;;;;5113043;28;20043;-72
2021/04/25 08:06:39;;;;;;;14.50;8.90;;;17.40;50.90;;;;;;5116378;27;20051;-72
2021/04/25 08:09:05;;;;;;;14.30;7.65;;;17.40;50.70;;;;;;5116435;28;20030;-73
2021/04/25 08:11:31;;;;;;;24.38;12.98;;;17.50;49.20;;;;;;5117483;28;20026;-79
2021/04/25 08:13:57;;;;;;;30.38;16.67;;;;;;;;;;5123572;28;20046;-74
2021/04/25 08:16:23;;;;;;;23.63;13.15;;;17.50;47.40;;;;;;5122018;28;20067;-73
2021/04/25 08:18:48;;;;;;;18.17;10.02;;;17.70;49.70;;;;;;5121879;28;20050;-73
2021/04/25 08:21:14;;;;;;;17.92;10.00;;;17.80;49.50;;;;;;5123344;28;20019;-76
2021/04/25 08:23:41;;;;;;;20.08;11.88;;;18.00;48.50;;;;;;5122852;28;20042;-76
2021/04/25 08:26:07;;;;;;;13.32;7.95;;;18.20;48.00;;;;;;5103018;28;20032;-73
2021/04/25 08:28:33;;;;;;;12.73;8.07;;;18.00;48.80;;;;;;5114253;28;20498;-74
2021/04/25 08:30:59;;;;;;;18.52;10.70;;;18.10;49.00;;;;;;5115967;28;20048;-72
2021/04/25 08:33:26;;;;;;;13.10;8.07;;;18.30;50.90;;;;;;5116574;28;20031;-72
2021/04/25 08:35:52;;;;;;;28.17;18.05;;;18.30;50.80;;;;;;5117613;28;20049;-72
2021/04/25 08:38:19;;;;;;;14.95;8.82;;;18.50;48.90;;;;;;5116617;27;20024;-75
2021/04/25 08:40:46;;;;;;;9.50;6.75;;;18.70;49.20;;;;;;5116223;28;20035;-73
2021/04/25 08:43:14;;;;;;;10.82;5.82;;;18.50;46.90;;;;;;5118193;28;20103;-74
2021/04/25 08:45:45;;;;;;;12.57;6.05;;;18.40;45.60;;;;;;5120169;28;20113;-71
2021/04/25 08:48:12;;;;;;;11.13;6.30;;;18.40;45.70;;;;;;5121787;28;20019;-76
2021/04/25 08:50:39;;;;;;;11.52;6.53;;;;;;;;;;5120507;28;20048;-74
2021/04/25 08:53:05;;;;;;;13.18;6.45;;;18.70;43.20;;;;;;5119885;28;20059;-75
2021/04/25 08:55:32;;;;;;;11.43;6.70;;;18.90;43.70;;;;;;5119885;28;20011;-74
2021/04/25 08:57:59;;;;;;;10.98;6.18;;;19.20;44.10;;;;;;5121875;28;20079;-74
2021/04/25 09:00:25;;;;;;;8.68;6.40;;;19.30;45.70;;;;;;5116661;28;20019;-74
2021/04/25 09:02:53;;;;;;;14.45;6.05;;;18.70;42.80;;;;;;5119383;27;20057;-71
2021/04/25 09:05:20;;;;;;;10.85;6.10;;;19.60;41.60;;;;;;5120746;28;20055;-75
2021/04/25 09:08:01;;;;;;;17.48;11.93;;;19.70;44.30;;;;;;5118319;28;20031;-74
2021/04/25 09:10:34;;;;;;;12.55;6.57;;;19.80;43.80;;;;;;5119702;28;20053;-73
2021/04/25 09:13:13;;;;;;;11.48;6.30;;;20.00;42.50;;;;;;5119750;28;20092;-76
2021/04/25 09:15:39;;;;;;;10.32;7.35;;;20.00;42.40;;;;;;5118825;28;20063;-77
2021/04/25 09:18:06;;;;;;;73.78;61.17;;;;;;;;;;5118111;28;20039;-73
2021/04/25 09:20:36;;;;;;;195.77;176.27;;;20.40;42.00;;;;;;5119168;28;20020;-77
2021/04/25 09:23:04;;;;;;;20.45;13.85;;;20.70;41.20;;;;;;5117887;28;20081;-81
2021/04/25 09:25:31;;;;;;;13.02;8.77;;;20.80;39.80;;;;;;5120243;28;20529;-74
2021/04/25 09:28:10;;;;;;;12.93;8.65;;;20.60;40.90;;;;;;5099602;22;20067;-72
2021/04/25 09:30:36;;;;;;;11.43;7.18;;;20.30;40.30;;;;;;5078943;28;20444;-77
2021/04/25 09:33:04;;;;;;;11.55;6.75;;;19.90;39.10;;;;;;5077232;28;20051;-76
2021/04/25 09:35:31;;;;;;;19.52;8.88;;;19.80;41.50;;;;;;5078107;28;20040;-71
2021/04/25 09:38:08;;;;;;;9.60;5.95;;;20.00;42.60;;;;;;5078722;28;20013;-74
2021/04/25 09:40:43;;;;;;;43.42;23.77;;;20.20;38.60;;;;;;5078986;28;20013;-74
2021/04/25 09:43:13;;;;;;;17.23;9.32;;;20.10;39.80;;;;;;5078694;28;20033;-74
2021/04/25 09:45:42;;;;;;;38.92;20.02;;;20.50;44.20;;;;;;5078430;28;20143;-71
2021/04/25 09:48:41;;;;;;;11.50;6.07;;;20.50;42.30;;;;;;5078293;28;20017;-73
2021/04/25 09:51:13;;;;;;;9.88;5.60;;;20.60;40.60;;;;;;5072917;28;20039;-72
2021/04/25 09:53:42;;;;;;;13.30;6.47;;;20.50;39.40;;;;;;5077934;28;20107;-74
2021/04/25 09:56:11;;;;;;;12.75;5.88;;;20.60;42.60;;;;;;5077380;28;20023;-71
2021/04/25 09:58:56;;;;;;;12.38;6.47;;;;;;;;;;5077254;28;20034;-73
2021/04/25 10:01:39;;;;;;;12.20;7.47;;;21.10;40.10;;;;;;5079045;28;20501;-76
2021/04/25 10:04:26;;;;;;;10.38;6.43;;;21.30;40.30;;;;;;5078611;28;20027;-75
2021/04/25 10:06:54;;;;;;;10.93;6.28;;;20.90;39.10;;;;;;5077490;28;20685;-70
2021/04/25 10:09:21;;;;;;;74.70;54.22;;;21.10;39.00;;;;;;5076023;28;20028;-75
2021/04/25 10:11:52;;;;;;;17.67;7.22;;;21.20;39.30;;;;;;5078249;28;20017;-72
2021/04/25 10:14:18;;;;;;;13.95;8.50;;;;;;;;;;5075545;28;20047;-74
2021/04/25 10:16:45;;;;;;;15.20;9.40;;;;;;;;;;5077450;28;20053;-73
2021/04/25 10:19:11;;;;;;;11.40;6.28;;;22.40;42.80;;;;;;5078020;28;20466;-73
2021/04/25 10:21:38;;;;;;;38.40;34.83;;;22.60;40.50;;;;;;5077542;28;20545;-74
2021/04/25 10:24:06;;;;;;;22.33;20.10;;;22.80;40.30;;;;;;5076769;28;20465;-73
2021/04/25 10:27:00;;;;;;;10.57;6.53;;;23.10;37.80;;;;;;5078362;28;20071;-72
2021/04/25 10:30:05;;;;;;;8.63;6.30;;;22.70;38.50;;;;;;5073793;28;20502;-73
2021/04/25 10:32:32;;;;;;;7.43;5.47;;;22.40;37.00;;;;;;5058527;28;20124;-76
2021/04/25 10:35:19;;;;;;;10.23;7.63;;;22.20;36.40;;;;;;5054719;28;20026;-75
2021/04/25 10:37:47;;;;;;;8.80;5.05;;;22.40;39.80;;;;;;5055957;28;20044;-78
2021/04/25 10:40:47;;;;;;;8.77;4.97;;;22.50;37.30;;;;;;5057931;28;20029;-74
2021/04/25 10:43:24;;;;;;;9.90;6.18;;;22.30;35.70;;;;;;5062684;28;20025;-76
2021/04/25 10:46:00;;;;;;;7.53;4.28;;;22.50;39.00;;;;;;5061236;28;20036;-77
2021/04/25 10:48:31;;;;;;;8.75;5.38;;;22.30;35.80;;;;;;5060947;28;20032;-74
2021/04/25 10:51:04;;;;;;;12.75;5.40;;;22.70;36.30;;;;;;5059625;28;20040;-75
2021/04/25 10:53:33;;;;;;;9.75;4.95;;;22.80;36.90;;;;;;5061957;28;20032;-76
2021/04/25 10:56:14;;;;;;;7.60;5.03;;;22.90;38.00;;;;;;5060615;28;20033;-78
2021/04/25 10:58:45;;;;;;;16.65;11.25;;;22.60;36.20;;;;;;5057577;28;20104;-74
2021/04/25 11:01:41;;;;;;;7.90;5.97;;;22.50;35.20;;;;;;5057996;28;20502;-75
2021/04/25 11:04:07;;;;;;;10.52;6.18;;;22.60;35.70;;;;;;5078174;28;20041;-77
2021/04/25 11:06:33;;;;;;;9.35;4.93;;;22.30;38.10;;;;;;5078953;28;20024;-73
2021/04/25 11:08:59;;;;;;;7.40;4.70;;;22.60;38.90;;;;;;5080824;28;20036;-73
2021/04/25 11:11:36;;;;;;;38.53;25.92;;;22.80;39.40;;;;;;5078857;28;20017;-73
2021/04/25 11:14:04;;;;;;;14.45;10.90;;;23.30;37.00;;;;;;5077865;28;20008;-76
2021/04/25 11:16:31;;;;;;;13.98;7.60;;;23.50;35.90;;;;;;5083141;28;20070;-72
2021/04/25 11:19:01;;;;;;;8.85;5.22;;;23.70;37.10;;;;;;5081583;28;20008;-74
2021/04/25 11:21:36;;;;;;;38.75;24.80;;;24.00;38.20;;;;;;5083397;28;20074;-74
2021/04/25 11:24:05;;;;;;;14.50;8.02;;;24.30;36.70;;;;;;5086705;28;20012;-79
2021/04/25 11:26:42;;;;;;;12.70;8.65;;;24.70;34.40;;;;;;5084488;28;20040;-74
2021/04/25 11:29:27;;;;;;;9.77;5.72;;;25.00;38.00;;;;;;5082692;28;20473;-76
2021/04/25 11:31:56;;;;;;;20.55;9.27;;;24.80;35.50;;;;;;5076689;28;20089;-75
2021/04/25 11:34:25;;;;;;;10.45;5.43;;;25.20;38.80;;;;;;5076111;28;20021;-74
2021/04/25 11:36:52;;;;;;;8.70;5.30;;;24.80;33.40;;;;;;5077033;28;20073;-74
2021/04/25 11:39:20;;;;;;;11.82;6.40;;;24.10;33.90;;;;;;5082355;28;20159;-73
2021/04/25 11:41:48;;;;;;;8.20;5.35;;;23.90;33.20;;;;;;5083145;28;20428;-75
2021/04/25 11:44:28;;;;;;;10.30;4.57;;;23.60;32.00;;;;;;5081785;28;20028;-78
2021/04/25 11:46:55;;;;;;;7.25;4.55;;;23.90;35.40;;;;;;5081166;28;20090;-75
2021/04/25 11:49:32;;;;;;;12.32;6.70;;;24.20;34.70;;;;;;5085065;28;20103;-73
2021/04/25 11:52:17;;;;;;;9.25;4.47;;;24.40;32.90;;;;;;5082229;28;20017;-76
2021/04/25 11:54:48;;;;;;;6.30;4.18;;;24.10;32.70;;;;;;5072692;28;20107;-72
2021/04/25 11:57:16;;;;;;;8.15;3.92;;;23.90;31.40;;;;;;5073990;28;20074;-72
2021/04/25 11:59:59;;;;;;;18.60;11.55;;;24.20;33.20;;;;;;5074269;28;20015;-72
2021/04/25 12:02:30;;;;;;;5.00;3.35;;;24.20;30.90;;;;;;5075971;28;20646;-77
2021/04/25 12:04:58;;;;;;;4.57;2.70;;;24.20;29.90;;;;;;5079896;28;20029;-73
2021/04/25 12:07:51;;;;;;;4.00;2.85;;;23.90;29.50;;;;;;5080124;28;20484;-72
2021/04/25 12:10:36;;;;;;;7.07;3.45;;;24.20;32.40;;;;;;5079851;28;20090;-73
2021/04/25 12:13:09;;;;;;;6.70;4.20;;;24.70;33.40;;;;;;5083572;28;20082;-75
2021/04/25 12:16:06;;;;;;;6.47;4.20;;;25.00;36.00;;;;;;5084185;28;20524;-75
2021/04/25 12:18:37;;;;;;;5.18;3.28;;;25.40;37.40;;;;;;5083085;28;20051;-77
2021/04/25 12:21:15;;;;;;;6.85;3.30;;;25.40;35.60;;;;;;5081159;28;20471;-73
2021/04/25 12:23:54;;;;;;;5.45;3.58;;;25.60;34.30;;;;;;5082768;28;20032;-73
2021/04/25 12:26:22;;;;;;;5.97;3.72;;;;;;;;;;5075799;28;20463;-73
2021/04/25 12:28:53;;;;;;;6.32;4.13;;;24.60;30.00;;;;;;5073479;28;20068;-73
2021/04/25 12:31:22;;;;;;;9.02;3.90;;;24.40;34.40;;;;;;5076971;28;20137;-72
2021/04/25 12:33:56;;;;;;;6.00;4.35;;;24.90;36.50;;;;;;5081504;28;20020;-74
2021/04/25 12:36:29;;;;;;;8.30;4.28;;;24.70;31.70;;;;;;5081554;28;20033;-77
2021/04/25 12:38:58;;;;;;;8.82;5.50;;;24.30;31.10;;;;;;5080292;28;20068;-78
2021/04/25 12:41:24;;;;;;;8.85;5.80;;;24.30;34.80;;;;;;5085409;28;20009;-79
2021/04/25 12:43:54;;;;;;;7.53;4.63;;;24.10;32.00;;;;;;5086618;28;20089;-77
2021/04/25 12:46:26;;;;;;;6.35;3.95;;;24.40;32.70;;;;;;5085463;28;20008;-78